sensor_id;sensor_type;location;lat;lon;timestamp;P1;durP1;ratioP1;P2;durP2;ratioP2
20894;SDS011;10607;42.066;24.742;2022-09-17T00:00:10;7.97;;;2.97;;
20894;SDS011;10607;42.066;24.742;2022-09-17T00:02:36;13.20;;;3.33;;
20894;SDS011;10607;42.066;24.742;2022-09-17T00:05:01;10.73;;;2.72;;
20894;SDS011;10607;42.066;24.742;2022-09-17T00:07:27;11.43;;;3.33;;
20894;SDS011;10607;42.066;24.742;2022-09-17T00:09:52;15.50;;;3.05;;
20894;SDS011;10607;42.066;24.742;2022-09-17T00:12:18;8.05;;;3.08;;
20894;SDS011;10607;42.066;24.742;2022-09-17T00:14:43;10.35;;;3.67;;
20894;SDS011;10607;42.066;24.742;2022-09-17T00:17:09;12.98;;;3.92;;
20894;SDS011;10607;42.066;24.742;2022-09-17T00:19:34;6.93;;;2.97;;
20894;SDS011;10607;42.066;24.742;2022-09-17T00:22:00;13.20;;;3.20;;
20894;SDS011;10607;42.066;24.742;2022-09-17T00:24:25;11.30;;;3.10;;
20894;SDS011;10607;42.066;24.742;2022-09-17T00:26:50;13.30;;;3.13;;
20894;SDS011;10607;42.066;24.742;2022-09-17T00:29:17;20.25;;;3.30;;
20894;SDS011;10607;42.066;24.742;2022-09-17T00:31:43;12.02;;;3.03;;
20894;SDS011;10607;42.066;24.742;2022-09-17T00:34:08;11.32;;;3.13;;
20894;SDS011;10607;42.066;24.742;2022-09-17T00:36:36;7.38;;;3.10;;
20894;SDS011;10607;42.066;24.742;2022-09-17T00:39:02;11.80;;;2.85;;
20894;SDS011;10607;42.066;24.742;2022-09-17T00:41:29;14.43;;;3.05;;
20894;SDS011;10607;42.066;24.742;2022-09-17T00:44:00;11.38;;;2.85;;
20894;SDS011;10607;42.066;24.742;2022-09-17T00:46:46;5.25;;;2.65;;
20894;SDS011;10607;42.066;24.742;2022-09-17T00:51:39;8.15;;;2.95;;
20894;SDS011;10607;42.066;24.742;2022-09-17T00:54:09;9.80;;;2.53;;
20894;SDS011;10607;42.066;24.742;2022-09-17T00:56:36;15.35;;;2.85;;
20894;SDS011;10607;42.066;24.742;2022-09-17T00:59:05;10.25;;;2.00;;
20894;SDS011;10607;42.066;24.742;2022-09-17T01:01:31;15.63;;;2.35;;
20894;SDS011;10607;42.066;24.742;2022-09-17T01:03:57;10.93;;;3.15;;
20894;SDS011;10607;42.066;24.742;2022-09-17T01:14:37;10.50;;;2.55;;
20894;SDS011;10607;42.066;24.742;2022-09-17T01:25:22;9.43;;;2.75;;
20894;SDS011;10607;42.066;24.742;2022-09-17T01:30:57;11.18;;;3.63;;
20894;SDS011;10607;42.066;24.742;2022-09-17T01:38:53;7.35;;;2.22;;
20894;SDS011;10607;42.066;24.742;2022-09-17T01:44:23;10.63;;;2.22;;
20894;SDS011;10607;42.066;24.742;2022-09-17T01:49:49;8.75;;;2.55;;
20894;SDS011;10607;42.066;24.742;2022-09-17T01:52:17;20.67;;;3.63;;
20894;SDS011;10607;42.066;24.742;2022-09-17T01:54:45;16.75;;;2.80;;
20894;SDS011;10607;42.066;24.742;2022-09-17T02:00:29;10.75;;;2.60;;
20894;SDS011;10607;42.066;24.742;2022-09-17T02:05:16;12.35;;;2.65;;
20894;SDS011;10607;42.066;24.742;2022-09-17T02:07:48;9.65;;;2.90;;
20894;SDS011;10607;42.066;24.742;2022-09-17T02:10:21;7.55;;;2.35;;
20894;SDS011;10607;42.066;24.742;2022-09-17T02:13:08;9.95;;;3.45;;
20894;SDS011;10607;42.066;24.742;2022-09-17T02:15:46;9.80;;;3.08;;
20894;SDS011;10607;42.066;24.742;2022-09-17T02:18:26;8.13;;;2.45;;
20894;SDS011;10607;42.066;24.742;2022-09-17T02:20:55;6.18;;;2.10;;
20894;SDS011;10607;42.066;24.742;2022-09-17T02:23:30;7.70;;;2.30;;
20894;SDS011;10607;42.066;24.742;2022-09-17T02:26:02;9.68;;;2.47;;
20894;SDS011;10607;42.066;24.742;2022-09-17T02:28:35;12.15;;;2.83;;
20894;SDS011;10607;42.066;24.742;2022-09-17T02:31:03;10.65;;;2.88;;
20894;SDS011;10607;42.066;24.742;2022-09-17T02:33:29;14.35;;;2.30;;
20894;SDS011;10607;42.066;24.742;2022-09-17T02:35:57;10.02;;;2.80;;
20894;SDS011;10607;42.066;24.742;2022-09-17T02:38:25;11.35;;;2.45;;
20894;SDS011;10607;42.066;24.742;2022-09-17T02:41:15;6.95;;;2.70;;
20894;SDS011;10607;42.066;24.742;2022-09-17T02:43:58;14.05;;;2.45;;
20894;SDS011;10607;42.066;24.742;2022-09-17T02:54:37;8.57;;;2.40;;
20894;SDS011;10607;42.066;24.742;2022-09-17T02:57:46;10.75;;;3.25;;
20894;SDS011;10607;42.066;24.742;2022-09-17T03:00:16;10.00;;;2.35;;
20894;SDS011;10607;42.066;24.742;2022-09-17T03:02:55;11.93;;;3.33;;
20894;SDS011;10607;42.066;24.742;2022-09-17T03:05:25;9.02;;;2.33;;
20894;SDS011;10607;42.066;24.742;2022-09-17T03:07:56;12.70;;;3.13;;
20894;SDS011;10607;42.066;24.742;2022-09-17T03:10:24;13.95;;;2.80;;
20894;SDS011;10607;42.066;24.742;2022-09-17T03:12:52;6.65;;;2.55;;
20894;SDS011;10607;42.066;24.742;2022-09-17T03:15:18;10.93;;;3.00;;
20894;SDS011;10607;42.066;24.742;2022-09-17T03:17:43;11.77;;;2.95;;
20894;SDS011;10607;42.066;24.742;2022-09-17T03:20:08;12.30;;;2.22;;
20894;SDS011;10607;42.066;24.742;2022-09-17T03:22:34;12.27;;;2.85;;
20894;SDS011;10607;42.066;24.742;2022-09-17T03:24:59;8.35;;;2.30;;
20894;SDS011;10607;42.066;24.742;2022-09-17T03:27:25;10.88;;;2.90;;
20894;SDS011;10607;42.066;24.742;2022-09-17T03:29:50;16.33;;;3.63;;
20894;SDS011;10607;42.066;24.742;2022-09-17T03:32:16;9.70;;;2.33;;
20894;SDS011;10607;42.066;24.742;2022-09-17T03:34:41;12.45;;;2.72;;
20894;SDS011;10607;42.066;24.742;2022-09-17T03:37:07;9.13;;;2.15;;
20894;SDS011;10607;42.066;24.742;2022-09-17T03:39:32;10.63;;;2.45;;
20894;SDS011;10607;42.066;24.742;2022-09-17T03:41:57;11.88;;;2.53;;
20894;SDS011;10607;42.066;24.742;2022-09-17T03:44:23;13.13;;;2.75;;
20894;SDS011;10607;42.066;24.742;2022-09-17T03:46:49;10.02;;;2.50;;
20894;SDS011;10607;42.066;24.742;2022-09-17T03:49:14;10.80;;;2.58;;
20894;SDS011;10607;42.066;24.742;2022-09-17T03:51:40;15.82;;;3.25;;
20894;SDS011;10607;42.066;24.742;2022-09-17T03:54:06;8.13;;;2.50;;
20894;SDS011;10607;42.066;24.742;2022-09-17T03:56:31;10.10;;;2.75;;
20894;SDS011;10607;42.066;24.742;2022-09-17T03:59:00;10.93;;;2.88;;
20894;SDS011;10607;42.066;24.742;2022-09-17T04:01:26;11.88;;;2.67;;
20894;SDS011;10607;42.066;24.742;2022-09-17T04:03:52;12.75;;;3.42;;
20894;SDS011;10607;42.066;24.742;2022-09-17T04:06:18;13.38;;;3.67;;
20894;SDS011;10607;42.066;24.742;2022-09-17T04:08:44;12.02;;;3.45;;
20894;SDS011;10607;42.066;24.742;2022-09-17T04:11:09;12.68;;;2.83;;
20894;SDS011;10607;42.066;24.742;2022-09-17T04:13:35;10.50;;;3.20;;
20894;SDS011;10607;42.066;24.742;2022-09-17T04:16:01;11.00;;;3.05;;
20894;SDS011;10607;42.066;24.742;2022-09-17T04:18:27;10.70;;;3.08;;
20894;SDS011;10607;42.066;24.742;2022-09-17T04:20:52;14.20;;;3.60;;
20894;SDS011;10607;42.066;24.742;2022-09-17T04:23:18;12.15;;;3.63;;
20894;SDS011;10607;42.066;24.742;2022-09-17T04:25:44;9.77;;;2.90;;
20894;SDS011;10607;42.066;24.742;2022-09-17T04:28:09;10.77;;;2.75;;
20894;SDS011;10607;42.066;24.742;2022-09-17T04:30:35;9.00;;;2.50;;
20894;SDS011;10607;42.066;24.742;2022-09-17T04:33:00;14.73;;;4.60;;
20894;SDS011;10607;42.066;24.742;2022-09-17T04:35:26;11.18;;;3.22;;
20894;SDS011;10607;42.066;24.742;2022-09-17T04:37:52;10.73;;;3.17;;
20894;SDS011;10607;42.066;24.742;2022-09-17T04:40:19;17.98;;;3.72;;
20894;SDS011;10607;42.066;24.742;2022-09-17T04:42:44;12.18;;;3.08;;
20894;SDS011;10607;42.066;24.742;2022-09-17T04:45:10;9.68;;;3.00;;
20894;SDS011;10607;42.066;24.742;2022-09-17T04:47:38;11.43;;;3.33;;
20894;SDS011;10607;42.066;24.742;2022-09-17T04:50:05;13.73;;;3.28;;
20894;SDS011;10607;42.066;24.742;2022-09-17T04:52:31;11.93;;;3.28;;
20894;SDS011;10607;42.066;24.742;2022-09-17T04:54:57;9.35;;;3.75;;
20894;SDS011;10607;42.066;24.742;2022-09-17T04:57:22;6.60;;;3.38;;
20894;SDS011;10607;42.066;24.742;2022-09-17T04:59:49;15.10;;;4.38;;
20894;SDS011;10607;42.066;24.742;2022-09-17T05:02:15;15.10;;;3.10;;
20894;SDS011;10607;42.066;24.742;2022-09-17T05:04:40;14.60;;;3.55;;
20894;SDS011;10607;42.066;24.742;2022-09-17T05:07:06;12.25;;;3.42;;
20894;SDS011;10607;42.066;24.742;2022-09-17T05:09:31;13.65;;;3.35;;
20894;SDS011;10607;42.066;24.742;2022-09-17T05:11:57;8.95;;;2.88;;
20894;SDS011;10607;42.066;24.742;2022-09-17T05:14:22;12.38;;;3.22;;
20894;SDS011;10607;42.066;24.742;2022-09-17T05:16:48;11.38;;;3.13;;
20894;SDS011;10607;42.066;24.742;2022-09-17T05:19:13;14.85;;;2.95;;
20894;SDS011;10607;42.066;24.742;2022-09-17T05:21:38;15.13;;;2.88;;
20894;SDS011;10607;42.066;24.742;2022-09-17T05:24:04;10.27;;;2.58;;
20894;SDS011;10607;42.066;24.742;2022-09-17T05:26:29;10.70;;;2.35;;
20894;SDS011;10607;42.066;24.742;2022-09-17T05:28:55;10.98;;;2.92;;
20894;SDS011;10607;42.066;24.742;2022-09-17T05:31:20;11.70;;;2.20;;
20894;SDS011;10607;42.066;24.742;2022-09-17T05:33:45;16.05;;;2.97;;
20894;SDS011;10607;42.066;24.742;2022-09-17T05:36:11;8.50;;;2.60;;
20894;SDS011;10607;42.066;24.742;2022-09-17T05:38:36;9.50;;;2.47;;
20894;SDS011;10607;42.066;24.742;2022-09-17T05:41:03;12.93;;;2.80;;
20894;SDS011;10607;42.066;24.742;2022-09-17T05:43:32;22.70;;;2.70;;
20894;SDS011;10607;42.066;24.742;2022-09-17T05:46:01;9.35;;;2.85;;
20894;SDS011;10607;42.066;24.742;2022-09-17T05:48:28;11.32;;;3.55;;
20894;SDS011;10607;42.066;24.742;2022-09-17T05:50:54;14.88;;;2.50;;
20894;SDS011;10607;42.066;24.742;2022-09-17T05:53:20;8.60;;;2.58;;
20894;SDS011;10607;42.066;24.742;2022-09-17T05:55:45;11.07;;;2.28;;
20894;SDS011;10607;42.066;24.742;2022-09-17T05:58:14;9.68;;;2.30;;
20894;SDS011;10607;42.066;24.742;2022-09-17T06:00:42;13.70;;;3.45;;
20894;SDS011;10607;42.066;24.742;2022-09-17T06:03:10;6.75;;;2.47;;
20894;SDS011;10607;42.066;24.742;2022-09-17T06:05:36;9.65;;;2.95;;
20894;SDS011;10607;42.066;24.742;2022-09-17T06:08:02;10.48;;;3.22;;
20894;SDS011;10607;42.066;24.742;2022-09-17T06:10:27;8.43;;;2.85;;
20894;SDS011;10607;42.066;24.742;2022-09-17T06:12:59;13.02;;;3.05;;
20894;SDS011;10607;42.066;24.742;2022-09-17T06:15:25;13.98;;;2.90;;
20894;SDS011;10607;42.066;24.742;2022-09-17T06:17:51;8.95;;;3.15;;
20894;SDS011;10607;42.066;24.742;2022-09-17T06:20:17;10.48;;;3.03;;
20894;SDS011;10607;42.066;24.742;2022-09-17T06:22:44;15.77;;;3.20;;
20894;SDS011;10607;42.066;24.742;2022-09-17T06:25:09;12.60;;;3.10;;
20894;SDS011;10607;42.066;24.742;2022-09-17T06:27:35;13.10;;;3.03;;
20894;SDS011;10607;42.066;24.742;2022-09-17T06:30:00;16.38;;;3.17;;
20894;SDS011;10607;42.066;24.742;2022-09-17T06:32:27;13.60;;;2.95;;
20894;SDS011;10607;42.066;24.742;2022-09-17T06:34:53;10.38;;;3.28;;
20894;SDS011;10607;42.066;24.742;2022-09-17T06:37:28;15.52;;;2.90;;
20894;SDS011;10607;42.066;24.742;2022-09-17T06:39:56;14.55;;;3.17;;
20894;SDS011;10607;42.066;24.742;2022-09-17T06:42:23;15.90;;;3.47;;
20894;SDS011;10607;42.066;24.742;2022-09-17T06:44:49;10.43;;;2.53;;
20894;SDS011;10607;42.066;24.742;2022-09-17T06:47:14;13.82;;;3.58;;
20894;SDS011;10607;42.066;24.742;2022-09-17T06:49:40;14.48;;;3.38;;
20894;SDS011;10607;42.066;24.742;2022-09-17T06:52:05;16.83;;;3.72;;
20894;SDS011;10607;42.066;24.742;2022-09-17T06:54:31;10.02;;;3.17;;
20894;SDS011;10607;42.066;24.742;2022-09-17T06:56:56;12.18;;;3.10;;
20894;SDS011;10607;42.066;24.742;2022-09-17T06:59:21;16.13;;;3.83;;
20894;SDS011;10607;42.066;24.742;2022-09-17T07:01:47;15.40;;;3.15;;
20894;SDS011;10607;42.066;24.742;2022-09-17T07:04:13;16.52;;;3.10;;
20894;SDS011;10607;42.066;24.742;2022-09-17T07:06:38;10.90;;;2.53;;
20894;SDS011;10607;42.066;24.742;2022-09-17T07:09:04;15.05;;;2.70;;
20894;SDS011;10607;42.066;24.742;2022-09-17T07:11:31;8.73;;;2.80;;
20894;SDS011;10607;42.066;24.742;2022-09-17T07:13:57;15.23;;;2.65;;
20894;SDS011;10607;42.066;24.742;2022-09-17T07:16:23;19.58;;;3.42;;
20894;SDS011;10607;42.066;24.742;2022-09-17T07:18:50;15.85;;;2.72;;
20894;SDS011;10607;42.066;24.742;2022-09-17T07:21:16;15.32;;;4.25;;
20894;SDS011;10607;42.066;24.742;2022-09-17T07:23:42;10.77;;;3.22;;
20894;SDS011;10607;42.066;24.742;2022-09-17T07:26:11;17.23;;;3.53;;
20894;SDS011;10607;42.066;24.742;2022-09-17T07:28:39;11.60;;;3.28;;
20894;SDS011;10607;42.066;24.742;2022-09-17T07:31:04;13.30;;;3.08;;
20894;SDS011;10607;42.066;24.742;2022-09-17T07:33:31;12.23;;;3.05;;
20894;SDS011;10607;42.066;24.742;2022-09-17T07:35:59;12.35;;;2.70;;
20894;SDS011;10607;42.066;24.742;2022-09-17T07:38:29;14.02;;;3.00;;
20894;SDS011;10607;42.066;24.742;2022-09-17T07:43:22;9.88;;;2.85;;
20894;SDS011;10607;42.066;24.742;2022-09-17T07:45:48;15.10;;;2.80;;
20894;SDS011;10607;42.066;24.742;2022-09-17T07:48:14;15.70;;;2.55;;
20894;SDS011;10607;42.066;24.742;2022-09-17T07:50:39;14.25;;;2.67;;
20894;SDS011;10607;42.066;24.742;2022-09-17T07:53:05;12.98;;;2.20;;
20894;SDS011;10607;42.066;24.742;2022-09-17T07:55:30;16.08;;;2.15;;
20894;SDS011;10607;42.066;24.742;2022-09-17T07:57:55;19.05;;;2.53;;
20894;SDS011;10607;42.066;24.742;2022-09-17T08:00:21;11.98;;;2.88;;
20894;SDS011;10607;42.066;24.742;2022-09-17T08:02:55;17.73;;;4.03;;
20894;SDS011;10607;42.066;24.742;2022-09-17T08:05:22;17.20;;;3.28;;
20894;SDS011;10607;42.066;24.742;2022-09-17T08:07:51;17.02;;;3.13;;
20894;SDS011;10607;42.066;24.742;2022-09-17T08:10:19;14.73;;;3.35;;
20894;SDS011;10607;42.066;24.742;2022-09-17T08:12:47;12.25;;;2.30;;
20894;SDS011;10607;42.066;24.742;2022-09-17T08:15:14;17.25;;;3.25;;
20894;SDS011;10607;42.066;24.742;2022-09-17T08:17:43;16.77;;;2.40;;
20894;SDS011;10607;42.066;24.742;2022-09-17T08:20:09;11.68;;;2.95;;
20894;SDS011;10607;42.066;24.742;2022-09-17T08:22:34;17.35;;;3.13;;
20894;SDS011;10607;42.066;24.742;2022-09-17T08:25:00;12.65;;;3.22;;
20894;SDS011;10607;42.066;24.742;2022-09-17T08:27:28;12.43;;;3.35;;
20894;SDS011;10607;42.066;24.742;2022-09-17T08:29:55;12.35;;;3.55;;
20894;SDS011;10607;42.066;24.742;2022-09-17T08:32:20;12.93;;;3.90;;
20894;SDS011;10607;42.066;24.742;2022-09-17T08:34:46;21.40;;;3.80;;
20894;SDS011;10607;42.066;24.742;2022-09-17T08:37:11;14.85;;;3.42;;
20894;SDS011;10607;42.066;24.742;2022-09-17T08:39:36;7.82;;;3.05;;
20894;SDS011;10607;42.066;24.742;2022-09-17T08:44:42;11.50;;;3.47;;
20894;SDS011;10607;42.066;24.742;2022-09-17T08:47:14;18.63;;;3.08;;
20894;SDS011;10607;42.066;24.742;2022-09-17T08:49:56;20.83;;;3.05;;
20894;SDS011;10607;42.066;24.742;2022-09-17T08:58:07;15.80;;;3.47;;
20894;SDS011;10607;42.066;24.742;2022-09-17T09:06:26;22.20;;;3.95;;
20894;SDS011;10607;42.066;24.742;2022-09-17T09:08:58;18.45;;;4.43;;
20894;SDS011;10607;42.066;24.742;2022-09-17T09:11:45;17.33;;;3.88;;
20894;SDS011;10607;42.066;24.742;2022-09-17T09:16:47;19.58;;;4.22;;
20894;SDS011;10607;42.066;24.742;2022-09-17T09:19:20;13.68;;;3.35;;
20894;SDS011;10607;42.066;24.742;2022-09-17T09:21:59;20.02;;;2.95;;
20894;SDS011;10607;42.066;24.742;2022-09-17T09:27:26;12.88;;;3.00;;
20894;SDS011;10607;42.066;24.742;2022-09-17T09:30:03;16.35;;;2.40;;
20894;SDS011;10607;42.066;24.742;2022-09-17T09:35:33;17.60;;;3.33;;
20894;SDS011;10607;42.066;24.742;2022-09-17T09:38:12;10.18;;;2.97;;
20894;SDS011;10607;42.066;24.742;2022-09-17T09:43:21;11.43;;;2.60;;
20894;SDS011;10607;42.066;24.742;2022-09-17T09:48:42;16.77;;;2.72;;
20894;SDS011;10607;42.066;24.742;2022-09-17T09:51:24;9.77;;;2.42;;
20894;SDS011;10607;42.066;24.742;2022-09-17T09:54:06;7.82;;;2.35;;
20894;SDS011;10607;42.066;24.742;2022-09-17T09:57:29;12.05;;;2.40;;
20894;SDS011;10607;42.066;24.742;2022-09-17T09:59:42;17.48;;;3.15;;
20894;SDS011;10607;42.066;24.742;2022-09-17T10:02:07;9.15;;;2.90;;
20894;SDS011;10607;42.066;24.742;2022-09-17T10:04:33;18.08;;;2.75;;
20894;SDS011;10607;42.066;24.742;2022-09-17T10:07:09;7.75;;;2.70;;
20894;SDS011;10607;42.066;24.742;2022-09-17T10:09:36;11.35;;;2.53;;
20894;SDS011;10607;42.066;24.742;2022-09-17T10:14:38;10.98;;;2.60;;
20894;SDS011;10607;42.066;24.742;2022-09-17T10:19:39;14.10;;;3.15;;
20894;SDS011;10607;42.066;24.742;2022-09-17T10:24:46;13.43;;;2.90;;
20894;SDS011;10607;42.066;24.742;2022-09-17T10:27:13;11.50;;;2.97;;
20894;SDS011;10607;42.066;24.742;2022-09-17T10:29:44;9.27;;;2.65;;
20894;SDS011;10607;42.066;24.742;2022-09-17T10:32:15;14.20;;;3.13;;
20894;SDS011;10607;42.066;24.742;2022-09-17T10:34:56;15.77;;;4.90;;
20894;SDS011;10607;42.066;24.742;2022-09-17T10:42:43;16.55;;;5.50;;
20894;SDS011;10607;42.066;24.742;2022-09-17T10:45:38;26.55;;;8.60;;
20894;SDS011;10607;42.066;24.742;2022-09-17T10:48:12;17.50;;;6.10;;
20894;SDS011;10607;42.066;24.742;2022-09-17T10:50:46;37.40;;;13.18;;
20894;SDS011;10607;42.066;24.742;2022-09-17T10:53:17;16.20;;;6.43;;
20894;SDS011;10607;42.066;24.742;2022-09-17T11:21:49;11.38;;;2.50;;
20894;SDS011;10607;42.066;24.742;2022-09-17T11:35:44;16.70;;;3.25;;
20894;SDS011;10607;42.066;24.742;2022-09-17T11:38:17;7.28;;;1.50;;
20894;SDS011;10607;42.066;24.742;2022-09-17T11:45:56;6.05;;;1.33;;
20894;SDS011;10607;42.066;24.742;2022-09-17T11:48:50;5.30;;;1.45;;
20894;SDS011;10607;42.066;24.742;2022-09-17T11:51:33;6.75;;;1.50;;
20894;SDS011;10607;42.066;24.742;2022-09-17T11:54:07;8.82;;;2.58;;
20894;SDS011;10607;42.066;24.742;2022-09-17T11:56:46;8.00;;;2.15;;
20894;SDS011;10607;42.066;24.742;2022-09-17T12:04:36;4.68;;;1.85;;
20894;SDS011;10607;42.066;24.742;2022-09-17T12:09:58;11.60;;;2.50;;
20894;SDS011;10607;42.066;24.742;2022-09-17T12:12:29;12.20;;;2.75;;
20894;SDS011;10607;42.066;24.742;2022-09-17T12:14:57;6.88;;;2.50;;
20894;SDS011;10607;42.066;24.742;2022-09-17T12:17:43;11.75;;;2.60;;
20894;SDS011;10607;42.066;24.742;2022-09-17T12:23:02;13.48;;;2.95;;
20894;SDS011;10607;42.066;24.742;2022-09-17T12:25:37;10.35;;;2.28;;
20894;SDS011;10607;42.066;24.742;2022-09-17T12:28:12;7.80;;;1.92;;
20894;SDS011;10607;42.066;24.742;2022-09-17T12:31:00;5.30;;;1.65;;
20894;SDS011;10607;42.066;24.742;2022-09-17T12:33:39;7.15;;;1.58;;
20894;SDS011;10607;42.066;24.742;2022-09-17T12:42:19;11.85;;;1.58;;
20894;SDS011;10607;42.066;24.742;2022-09-17T12:48:30;9.80;;;1.67;;
20894;SDS011;10607;42.066;24.742;2022-09-17T12:53:51;4.28;;;0.98;;
20894;SDS011;10607;42.066;24.742;2022-09-17T12:57:10;6.35;;;1.58;;
20894;SDS011;10607;42.066;24.742;2022-09-17T12:59:31;4.47;;;1.60;;
20894;SDS011;10607;42.066;24.742;2022-09-17T13:02:01;6.00;;;1.90;;
20894;SDS011;10607;42.066;24.742;2022-09-17T13:21:34;9.30;;;1.70;;
20894;SDS011;10607;42.066;24.742;2022-09-17T13:24:13;5.65;;;1.48;;
20894;SDS011;10607;42.066;24.742;2022-09-17T13:26:44;5.53;;;1.70;;
20894;SDS011;10607;42.066;24.742;2022-09-17T13:29:10;5.57;;;1.63;;
20894;SDS011;10607;42.066;24.742;2022-09-17T13:34:03;7.18;;;1.70;;
20894;SDS011;10607;42.066;24.742;2022-09-17T13:36:53;7.50;;;2.15;;
20894;SDS011;10607;42.066;24.742;2022-09-17T13:39:40;5.43;;;1.52;;
20894;SDS011;10607;42.066;24.742;2022-09-17T13:42:15;8.98;;;1.73;;
20894;SDS011;10607;42.066;24.742;2022-09-17T13:47:31;5.43;;;1.50;;
20894;SDS011;10607;42.066;24.742;2022-09-17T13:50:05;16.23;;;1.85;;
20894;SDS011;10607;42.066;24.742;2022-09-17T13:55:04;5.45;;;1.52;;
20894;SDS011;10607;42.066;24.742;2022-09-17T13:57:31;8.32;;;1.17;;
20894;SDS011;10607;42.066;24.742;2022-09-17T14:00:27;5.82;;;1.58;;
20894;SDS011;10607;42.066;24.742;2022-09-17T14:22:00;2.35;;;0.90;;
20894;SDS011;10607;42.066;24.742;2022-09-17T14:35:16;6.32;;;1.10;;
20894;SDS011;10607;42.066;24.742;2022-09-17T14:37:53;3.38;;;0.70;;
20894;SDS011;10607;42.066;24.742;2022-09-17T14:40:22;6.72;;;1.05;;
20894;SDS011;10607;42.066;24.742;2022-09-17T14:42:49;3.10;;;0.60;;
20894;SDS011;10607;42.066;24.742;2022-09-17T14:45:20;10.93;;;1.00;;
20894;SDS011;10607;42.066;24.742;2022-09-17T14:50:51;3.33;;;0.63;;
20894;SDS011;10607;42.066;24.742;2022-09-17T14:53:18;3.97;;;0.90;;
20894;SDS011;10607;42.066;24.742;2022-09-17T14:55:48;3.00;;;0.80;;
20894;SDS011;10607;42.066;24.742;2022-09-17T15:06:38;2.00;;;0.88;;
20894;SDS011;10607;42.066;24.742;2022-09-17T15:09:22;3.47;;;0.80;;
20894;SDS011;10607;42.066;24.742;2022-09-17T15:11:53;6.32;;;1.33;;
20894;SDS011;10607;42.066;24.742;2022-09-17T15:14:28;5.95;;;1.33;;
20894;SDS011;10607;42.066;24.742;2022-09-17T15:16:56;7.85;;;1.40;;
20894;SDS011;10607;42.066;24.742;2022-09-17T15:19:25;5.60;;;1.40;;
20894;SDS011;10607;42.066;24.742;2022-09-17T15:21:57;9.55;;;3.72;;
20894;SDS011;10607;42.066;24.742;2022-09-17T15:24:38;1.92;;;1.30;;
20894;SDS011;10607;42.066;24.742;2022-09-17T15:27:18;3.55;;;1.33;;
20894;SDS011;10607;42.066;24.742;2022-09-17T15:30:16;8.13;;;2.05;;
20894;SDS011;10607;42.066;24.742;2022-09-17T15:37:58;5.72;;;0.95;;
20894;SDS011;10607;42.066;24.742;2022-09-17T15:40:42;6.85;;;1.52;;
20894;SDS011;10607;42.066;24.742;2022-09-17T15:45:51;4.53;;;1.40;;
20894;SDS011;10607;42.066;24.742;2022-09-17T15:50:52;5.85;;;1.40;;
20894;SDS011;10607;42.066;24.742;2022-09-17T15:53:23;11.95;;;2.03;;
20894;SDS011;10607;42.066;24.742;2022-09-17T15:55:57;11.13;;;2.67;;
20894;SDS011;10607;42.066;24.742;2022-09-17T15:58:28;12.32;;;2.72;;
20894;SDS011;10607;42.066;24.742;2022-09-17T16:11:17;11.00;;;2.00;;
20894;SDS011;10607;42.066;24.742;2022-09-17T16:13:47;8.85;;;1.90;;
20894;SDS011;10607;42.066;24.742;2022-09-17T16:16:14;5.47;;;1.50;;
20894;SDS011;10607;42.066;24.742;2022-09-17T16:18:41;5.88;;;1.10;;
20894;SDS011;10607;42.066;24.742;2022-09-17T16:21:09;6.72;;;1.25;;
20894;SDS011;10607;42.066;24.742;2022-09-17T16:23:35;3.60;;;1.42;;
20894;SDS011;10607;42.066;24.742;2022-09-17T16:26:01;5.97;;;1.80;;
20894;SDS011;10607;42.066;24.742;2022-09-17T16:28:27;7.43;;;1.60;;
20894;SDS011;10607;42.066;24.742;2022-09-17T16:30:54;5.38;;;1.50;;
20894;SDS011;10607;42.066;24.742;2022-09-17T16:33:20;6.88;;;2.15;;
20894;SDS011;10607;42.066;24.742;2022-09-17T16:35:45;4.10;;;1.90;;
20894;SDS011;10607;42.066;24.742;2022-09-17T16:38:11;5.43;;;1.90;;
20894;SDS011;10607;42.066;24.742;2022-09-17T16:40:44;5.50;;;1.70;;
20894;SDS011;10607;42.066;24.742;2022-09-17T16:43:15;8.45;;;1.30;;
20894;SDS011;10607;42.066;24.742;2022-09-17T16:45:42;8.52;;;1.40;;
20894;SDS011;10607;42.066;24.742;2022-09-17T16:48:07;3.30;;;1.65;;
20894;SDS011;10607;42.066;24.742;2022-09-17T16:50:33;5.13;;;1.65;;
20894;SDS011;10607;42.066;24.742;2022-09-17T16:52:59;4.22;;;1.30;;
20894;SDS011;10607;42.066;24.742;2022-09-17T16:55:25;5.85;;;1.73;;
20894;SDS011;10607;42.066;24.742;2022-09-17T16:57:51;5.63;;;1.30;;
20894;SDS011;10607;42.066;24.742;2022-09-17T17:00:17;3.42;;;1.42;;
20894;SDS011;10607;42.066;24.742;2022-09-17T17:02:52;12.18;;;1.27;;
20894;SDS011;10607;42.066;24.742;2022-09-17T17:05:22;7.15;;;1.70;;
20894;SDS011;10607;42.066;24.742;2022-09-17T17:07:49;7.35;;;1.10;;
20894;SDS011;10607;42.066;24.742;2022-09-17T17:10:15;6.57;;;1.50;;
20894;SDS011;10607;42.066;24.742;2022-09-17T17:12:41;5.45;;;1.70;;
20894;SDS011;10607;42.066;24.742;2022-09-17T17:15:07;5.60;;;1.30;;
20894;SDS011;10607;42.066;24.742;2022-09-17T17:17:34;4.93;;;1.10;;
20894;SDS011;10607;42.066;24.742;2022-09-17T17:20:03;6.50;;;1.42;;
20894;SDS011;10607;42.066;24.742;2022-09-17T17:22:33;6.43;;;1.67;;
20894;SDS011;10607;42.066;24.742;2022-09-17T17:25:00;7.47;;;2.22;;
20894;SDS011;10607;42.066;24.742;2022-09-17T17:27:27;8.20;;;1.88;;
20894;SDS011;10607;42.066;24.742;2022-09-17T17:29:53;9.23;;;2.38;;
20894;SDS011;10607;42.066;24.742;2022-09-17T17:32:18;3.63;;;2.17;;
20894;SDS011;10607;42.066;24.742;2022-09-17T17:34:44;8.68;;;1.15;;
20894;SDS011;10607;42.066;24.742;2022-09-17T17:37:09;9.88;;;1.67;;
20894;SDS011;10607;42.066;24.742;2022-09-17T17:39:35;5.72;;;2.25;;
20894;SDS011;10607;42.066;24.742;2022-09-17T17:42:00;8.07;;;2.80;;
20894;SDS011;10607;42.066;24.742;2022-09-17T17:44:25;4.82;;;1.63;;
20894;SDS011;10607;42.066;24.742;2022-09-17T17:46:51;4.13;;;1.48;;
20894;SDS011;10607;42.066;24.742;2022-09-17T17:49:16;3.85;;;1.48;;
20894;SDS011;10607;42.066;24.742;2022-09-17T17:51:42;6.30;;;1.70;;
20894;SDS011;10607;42.066;24.742;2022-09-17T17:54:07;7.03;;;1.50;;
20894;SDS011;10607;42.066;24.742;2022-09-17T17:56:32;4.03;;;1.40;;
20894;SDS011;10607;42.066;24.742;2022-09-17T17:58:58;3.42;;;1.02;;
20894;SDS011;10607;42.066;24.742;2022-09-17T18:01:25;2.05;;;1.13;;
20894;SDS011;10607;42.066;24.742;2022-09-17T18:03:58;6.60;;;1.00;;
20894;SDS011;10607;42.066;24.742;2022-09-17T18:06:26;1.23;;;0.50;;
20894;SDS011;10607;42.066;24.742;2022-09-17T18:08:52;4.13;;;0.90;;
20894;SDS011;10607;42.066;24.742;2022-09-17T18:11:18;2.90;;;0.80;;
20894;SDS011;10607;42.066;24.742;2022-09-17T18:13:44;6.80;;;2.22;;
20894;SDS011;10607;42.066;24.742;2022-09-17T18:16:13;3.63;;;0.70;;
20894;SDS011;10607;42.066;24.742;2022-09-17T18:18:42;2.03;;;0.70;;
20894;SDS011;10607;42.066;24.742;2022-09-17T18:21:09;9.10;;;0.90;;
20894;SDS011;10607;42.066;24.742;2022-09-17T18:23:40;4.47;;;1.08;;
20894;SDS011;10607;42.066;24.742;2022-09-17T18:26:06;5.47;;;0.95;;
20894;SDS011;10607;42.066;24.742;2022-09-17T18:28:35;5.22;;;0.93;;
20894;SDS011;10607;42.066;24.742;2022-09-17T18:31:05;3.42;;;0.63;;
20894;SDS011;10607;42.066;24.742;2022-09-17T18:33:52;1.73;;;0.30;;
20894;SDS011;10607;42.066;24.742;2022-09-17T18:36:25;3.20;;;0.50;;
20894;SDS011;10607;42.066;24.742;2022-09-17T18:38:52;4.60;;;0.80;;
20894;SDS011;10607;42.066;24.742;2022-09-17T18:41:20;3.60;;;1.63;;
20894;SDS011;10607;42.066;24.742;2022-09-17T18:43:45;2.53;;;0.60;;